Terminal Aerodrome Forecast
Issued by NWS

Home | Current Version | Previous Version | Text Only | Print | Product List | Glossary On
Versions: 1 2 3 4 5 6 7 8 9 10 11 12 13 14 15 16 17 18 19 20 21 22 23 24 25 26 27 28 29 30
000
FTUS41 KBUF 011501 AAB
TAFIAG
TAF AMD
KIAG 011501Z 0115/0212 09008KT P6SM OVC030
     FM011600 09008KT P6SM SCT030 BKN050
     FM012100 10008KT P6SM VCSH BKN035
     FM020300 14006KT P6SM BKN050
     FM020600 18006KT P6SM BKN060=

USA.gov is the U.S. government's official web portal to all federal, state and local government web resources and services.